Details From SBKP - Sao Paulo Viracopos
To SBRJ - Santos-dumont
Flight Number -
Tags Decoded
Created
Modified
Stats Distance 235 nm / 435 km
Max Altitude 0 ft / 0 m
Waypoints 7
Social Downloads 15
Likes 0
Share VATSIM

Download

Looking for another format? Having issues loading an existing format? Contact us
Advertisement - Login to hide

Notes

Decoded

Route

SBKP NOGUR PERES TUBO NOA YLA SBRJ

ID Type Via Altitude Latitude Longitude Leg Dist Tot Dist Heading (true) Name
O SBKP APT - 0 ft / 0 m -22.99843˚ -47.14702˚ - 0 nm - -
NOGUR FIX - 0 ft / 0 m -23.28717˚ -45.98883˚ 66 nm 66 nm 105° / 105° -
PERES FIX - 0 ft / 0 m -23.09350˚ -45.14783˚ 47 nm 114 nm 76° / 76° -
TUBO FIX - 0 ft / 0 m -22.91267˚ -44.33300˚ 46 nm 160 nm 77° / 76° -
NOA NDB - 0 ft / 0 m -22.71850˚ -43.48050˚ 48 nm 209 nm 76° / 76° NOVA NDB
YLA NDB - 0 ft / 0 m -22.78700˚ -43.16767˚ 17 nm 226 nm 103° / 103° ILHA NDB
O SBRJ APT - 0 ft / 0 m -22.91603˚ -43.16328˚ 7 nm 234 nm 178° / 178° -

Altitude Profile

Advertisement - Login to hide

Weather


0- 5 10 15 20 25 30 35+ Temperature / ° C

Clouds and Precipitation
Forecast for 2018-05-24 18:00 UTC. Updated a few seconds ago

Ground ~20,000 ft ~40,000 ft Winds

SBKP

Details ICAO SBKP (VCP)
Name Sao Paulo Viracopos
Region Brazil
Timezone America/Sao_Paulo (UTC-3.0)
Stats Elevation 2,170 ft / 661 m (AMSL)
Location -23.007383° -47.134522°
Runways 1
Magnetic Variation 21.249° W

METAR

SBKP 241700Z 10003KT CAVOK 25/10 Q1023

Decode

TAF

TAF SBKP 240900Z 2412/2512 12006KT CAVOK TX25/2418Z TN14/2508Z BECMG 2416/2418 15012KT RMK PGH

Decode

Departure Runways

ID Width Length Bearing (true) Bearing (mag) Surface Threshold Offset Overrun Length
15 148 ft / 45 m 10,639 ft / 3,243 m 127.91° 149.16° Asphalt 0 ft / 0 m 205 ft / 62 m
33 148 ft / 45 m 10,639 ft / 3,243 m 307.90° 329.15° Asphalt 0 ft / 0 m 205 ft / 62 m

SBRJ

Details ICAO SBRJ (SDU)
Name Santos-Dumont
Region Brazil
Timezone Unknown (UTC+0.0)
Stats Elevation 11 ft / 3 m (AMSL)
Location -22.910460° -43.163133°
Runways 2
Magnetic Variation 22.825° W

METAR

SBRJ 241700Z 15007KT 9999 FEW020 26/18 Q1021

Decode

TAF

TAF SBRJ 240800Z 2412/2424 35005KT 9999 SCT020 BKN040 TX26/2416Z TN20/2424Z BECMG 2414/2416 15010KT 7000 SCT017 RMK PGU

Decode

Destination Runways

ID Width Length Bearing (true) Bearing (mag) Surface Threshold Offset Overrun Length
02L 98 ft / 30 m 4,154 ft / 1,266 m 358.02° 20.85° Asphalt 0 ft / 0 m 80 ft / 24 m
02R 138 ft / 42 m 4,361 ft / 1,329 m 358.01° 20.84° Asphalt 0 ft / 0 m 80 ft / 24 m
20L 138 ft / 42 m 4,361 ft / 1,329 m 178.01° 200.84° Asphalt 0 ft / 0 m 80 ft / 24 m
20R 98 ft / 30 m 4,154 ft / 1,266 m 178.02° 200.85° Asphalt 0 ft / 0 m 95 ft / 29 m

Approach Navaids

Runway Type Ident Frequency Range Bearing (true) Bearing (mag) Slope Elevation
20L Localiser IRJ 111.10 MHz 18 nm / 33 km 172.42° 195.25° - 11 ft / 3 m (AMSL)

Popular Alternatives